Time;durP1;ratioP1;P1;durP2;ratioP2;P2;SDS_P1;SDS_P2;PMS_P1;PMS_P2;Temp;Humidity;BMP_temperature;BMP_pressure;BME280_temperature;BME280_humidity;BME280_pressure;Samples;Min_cycle;Max_cycle;Signal;HPM_P1;HPM_P2
2020/12/19 00:01:49;;;;;;;20.58;8.40;;;;;;;;;;5052957;28;20067;-68
2020/12/19 00:04:15;;;;;;;17.77;9.07;;;;;;;;;;5052858;28;20522;-68
2020/12/19 00:06:45;;;;;;;17.73;9.10;;;11.10;61.20;;;;;;5052620;28;20079;-69
2020/12/19 00:09:12;;;;;;;19.75;8.68;;;10.80;62.10;;;;;;5067428;28;20059;-68
2020/12/19 00:11:41;;;;;;;16.42;8.40;;;10.90;62.20;;;;;;5052121;28;20127;-69
2020/12/19 00:14:08;;;;;;;21.30;9.05;;;;;;;;;;5052216;28;20490;-68
2020/12/19 00:16:34;;;;;;;19.40;8.80;;;;;;;;;;5052577;28;20067;-65
2020/12/19 00:19:00;;;;;;;19.48;9.30;;;;;;;;;;5052415;28;20029;-69
2020/12/19 00:21:33;;;;;;;21.58;9.48;;;11.00;61.70;;;;;;5052385;28;20039;-67
2020/12/19 00:24:00;;;;;;;17.10;8.85;;;11.00;61.70;;;;;;5016402;28;20045;-68
2020/12/19 00:26:38;;;;;;;19.13;9.10;;;10.80;62.50;;;;;;5050913;28;20537;-68
2020/12/19 00:29:05;;;;;;;22.77;9.55;;;10.90;62.50;;;;;;5052115;28;20025;-66
2020/12/19 00:31:31;;;;;;;16.90;8.70;;;;;;;;;;5067368;28;20032;-67
2020/12/19 00:33:58;;;;;;;22.85;9.32;;;;;;;;;;5052009;28;20035;-67
2020/12/19 00:36:24;;;;;;;15.77;8.82;;;;;;;;;;5050494;28;20372;-69
2020/12/19 00:38:50;;;;;;;15.70;9.00;;;;;;;;;;5050794;28;20525;-68
2020/12/19 00:41:21;;;;;;;17.67;8.70;;;10.70;63.10;;;;;;5051710;28;20040;-68
2020/12/19 00:43:48;;;;;;;19.45;9.57;;;;;;;;;;5051925;28;20052;-69
2020/12/19 00:46:15;;;;;;;21.98;10.23;;;10.70;63.20;;;;;;5052084;28;20090;-68
2020/12/19 00:48:42;;;;;;;20.45;9.55;;;;;;;;;;5051688;28;20373;-67
2020/12/19 00:51:16;;;;;;;21.35;9.18;;;10.70;63.40;;;;;;5051829;28;20032;-66
2020/12/19 00:53:43;;;;;;;22.52;9.85;;;;;;;;;;5051543;28;20068;-67
2020/12/19 00:56:19;;;;;;;19.17;9.43;;;10.60;63.10;;;;;;5051437;28;20565;-67
2020/12/19 00:58:46;;;;;;;18.42;9.05;;;;;;;;;;5051472;28;20468;-68
2020/12/19 01:01:13;;;;;;;23.45;10.18;;;10.70;62.90;;;;;;5051643;28;20460;-68
2020/12/19 01:03:40;;;;;;;25.17;10.90;;;;;;;;;;5051559;28;20115;-67
2020/12/19 01:06:06;;;;;;;21.58;9.25;;;;;;;;;;5051571;28;20037;-67
2020/12/19 01:08:32;;;;;;;21.10;9.25;;;;;;;;;;5051087;28;20045;-68
2020/12/19 01:10:58;;;;;;;22.42;10.13;;;;;;;;;;5051316;28;20479;-67
2020/12/19 01:13:25;;;;;;;19.80;8.98;;;;;;;;;;5051510;28;20036;-66
2020/12/19 01:15:51;;;;;;;23.92;10.95;;;;;;;;;;5051263;28;20037;-67
2020/12/19 01:18:18;;;;;;;22.20;10.20;;;;;;;;;;5050183;28;20414;-68
2020/12/19 01:20:44;;;;;;;21.95;9.63;;;;;;;;;;5049973;28;20086;-68
2020/12/19 01:23:11;;;;;;;21.50;10.07;;;;;;;;;;5050548;28;20037;-69
2020/12/19 01:25:37;;;;;;;19.13;9.73;;;;;;;;;;5051026;28;20083;-68
2020/12/19 01:28:03;;;;;;;18.98;10.05;;;;;;;;;;5051349;28;20401;-67
2020/12/19 01:30:29;;;;;;;23.15;10.10;;;;;;;;;;5051441;28;20050;-68
2020/12/19 01:32:56;;;;;;;19.27;10.15;;;;;;;;;;5051110;28;20022;-68
2020/12/19 01:35:22;;;;;;;19.50;9.88;;;;;;;;;;5049772;28;20036;-66
2020/12/19 01:37:48;;;;;;;22.88;9.77;;;;;;;;;;5051149;28;20068;-69
2020/12/19 01:40:15;;;;;;;21.80;10.25;;;;;;;;;;5051014;28;20479;-68
2020/12/19 01:42:41;;;;;;;20.77;10.57;;;;;;;;;;5050244;28;20033;-68
2020/12/19 01:45:07;;;;;;;22.23;11.20;;;;;;;;;;5051322;28;20056;-68
2020/12/19 01:47:34;;;;;;;22.73;10.73;;;10.70;63.50;;;;;;5051321;28;20029;-66
2020/12/19 01:50:04;;;;;;;22.35;11.20;;;10.70;63.50;;;;;;5049225;28;20052;-67
2020/12/19 01:52:31;;;;;;;22.10;10.73;;;;;;;;;;5049540;28;20392;-68
2020/12/19 01:54:58;;;;;;;21.73;9.63;;;10.60;63.90;;;;;;5050621;28;20025;-67
2020/12/19 01:57:31;;;;;;;23.45;11.35;;;10.60;63.90;;;;;;5051128;28;20104;-68
2020/12/19 01:59:58;;;;;;;26.38;10.48;;;;;;;;;;5050859;28;20056;-69
2020/12/19 02:02:24;;;;;;;23.23;10.40;;;10.80;62.90;;;;;;5049799;28;20025;-68
2020/12/19 02:04:51;;;;;;;20.48;10.82;;;;;;;;;;5050906;28;20029;-68
2020/12/19 02:07:17;;;;;;;;;;;10.90;62.70;;;;;;5051024;28;20032;-68
2020/12/19 02:09:44;;;;;;;19.50;10.02;;;;;;;;;;5050872;28;19925;-68
2020/12/19 02:12:10;;;;;;;20.80;10.38;;;;;;;;;;5049483;28;20380;-68
2020/12/19 02:14:37;;;;;;;25.45;9.77;;;;;;;;;;5050910;28;20033;-68
2020/12/19 02:17:10;;;;;;;23.95;10.93;;;10.80;63.40;;;;;;5049480;28;20103;-67
2020/12/19 02:19:36;;;;;;;20.65;10.95;;;10.80;63.20;;;;;;5050853;28;20025;-68
2020/12/19 02:22:05;;;;;;;20.30;10.73;;;10.80;63.30;;;;;;5050312;28;20048;-68
2020/12/19 02:24:31;;;;;;;25.70;12.00;;;;;;;;;;5050573;28;20065;-68
2020/12/19 02:26:58;;;;;;;21.27;10.93;;;;;;;;;;5050779;28;20063;-68
2020/12/19 02:29:26;;;;;;;23.48;10.35;;;11.00;62.80;;;;;;5050391;28;20047;-68
2020/12/19 02:31:53;;;;;;;22.45;11.07;;;10.90;63.20;;;;;;5049585;28;20124;-69
2020/12/19 02:34:19;;;;;;;21.83;11.02;;;;;;;;;;5049275;28;20482;-68
2020/12/19 02:36:46;;;;;;;26.35;10.88;;;;;;;;;;5054065;28;20045;-69
2020/12/19 02:39:12;;;;;;;19.27;10.15;;;;;;;;;;5054475;28;20037;-68
2020/12/19 02:41:40;;;;;;;23.73;11.52;;;10.80;63.50;;;;;;5054360;28;20120;-68
2020/12/19 02:44:07;;;;;;;18.20;9.68;;;11.00;62.70;;;;;;5054448;28;20029;-68
2020/12/19 02:46:34;;;;;;;26.42;10.50;;;;;;;;;;5054182;28;20029;-68
2020/12/19 02:49:00;;;;;;;19.45;9.65;;;;;;;;;;5054106;28;20032;-68
2020/12/19 02:51:26;;;;;;;19.05;10.10;;;;;;;;;;5053959;28;20029;-69
2020/12/19 02:53:53;;;;;;;23.70;10.57;;;;;;;;;;5054418;28;20044;-69
2020/12/19 02:56:19;;;;;;;21.02;10.50;;;;;;;;;;5054131;28;20487;-68
2020/12/19 02:58:45;;;;;;;24.50;10.90;;;;;;;;;;5045521;28;20063;-69
2020/12/19 03:01:12;;;;;;;24.80;10.38;;;;;;;;;;5054009;28;20033;-68
2020/12/19 03:03:38;;;;;;;22.00;10.30;;;;;;;;;;5053782;28;20043;-69
2020/12/19 03:06:04;;;;;;;25.20;12.00;;;;;;;;;;5053540;28;20025;-70
2020/12/19 03:08:30;;;;;;;20.98;10.68;;;;;;;;;;5053845;28;20056;-69
2020/12/19 03:10:56;;;;;;;25.48;12.43;;;;;;;;;;5053941;28;20171;-69
2020/12/19 03:13:23;;;;;;;25.23;10.93;;;;;;;;;;5053852;28;20033;-68
2020/12/19 03:15:49;;;;;;;20.60;10.43;;;;;;;;;;5053772;28;20086;-67
2020/12/19 03:18:15;;;;;;;25.63;11.10;;;;;;;;;;5053539;28;20032;-65
2020/12/19 03:20:41;;;;;;;23.30;10.30;;;;;;;;;;5053391;28;20383;-70
2020/12/19 03:23:08;;;;;;;20.92;9.85;;;;;;;;;;5053273;28;20025;-68
2020/12/19 03:25:34;;;;;;;23.63;11.10;;;;;;;;;;5053620;28;20100;-69
2020/12/19 03:28:00;;;;;;;21.95;12.05;;;;;;;;;;5053428;28;20037;-68
2020/12/19 03:30:26;;;;;;;22.05;10.90;;;;;;;;;;5053332;28;20426;-68
2020/12/19 03:32:54;;;;;;;25.30;11.55;;;10.80;63.30;;;;;;5053129;28;20480;-68
2020/12/19 03:35:20;;;;;;;25.05;10.75;;;;;;;;;;5051726;28;20033;-69
2020/12/19 03:37:47;;;;;;;23.50;11.82;;;;;;;;;;5053215;28;20095;-69
2020/12/19 03:40:13;;;;;;;26.20;12.02;;;;;;;;;;5051862;28;20033;-69
2020/12/19 03:42:39;;;;;;;23.50;11.07;;;;;;;;;;5053349;28;20044;-69
2020/12/19 03:45:06;;;;;;;25.17;11.48;;;10.30;65.00;;;;;;5053003;28;20033;-67
2020/12/19 03:47:32;;;;;;;22.10;11.18;;;;;;;;;;5052191;28;20048;-68
2020/12/19 03:50:02;;;;;;;22.58;11.23;;;10.50;64.90;;;;;;5052711;28;20048;-67
2020/12/19 03:52:28;;;;;;;24.98;10.52;;;;;;;;;;5052866;28;20031;-68
2020/12/19 03:54:55;;;;;;;25.85;10.75;;;;;;;;;;5052762;28;20493;-69
2020/12/19 03:57:21;;;;;;;24.92;11.35;;;;;;;;;;5052802;28;20064;-67
2020/12/19 03:59:47;;;;;;;23.67;11.55;;;;;;;;;;5053600;28;20128;-68
2020/12/19 04:02:13;;;;;;;26.77;11.38;;;;;;;;;;5053365;28;20021;-68
2020/12/19 04:04:39;;;;;;;21.48;11.75;;;;;;;;;;5052838;28;20033;-67
2020/12/19 04:07:06;;;;;;;21.10;11.02;;;;;;;;;;5052244;28;20112;-68
2020/12/19 04:09:32;;;;;;;23.05;10.88;;;;;;;;;;5052457;28;20056;-68
2020/12/19 04:11:58;;;;;;;25.83;11.60;;;;;;;;;;5052882;28;20391;-69
2020/12/19 04:14:37;;;;;;;18.88;10.70;;;;;;;;;;5052444;28;20036;-69
2020/12/19 04:17:10;;;;;;;23.50;10.82;;;10.90;63.70;;;;;;5052393;28;20501;-68
2020/12/19 04:19:40;;;;;;;19.40;9.68;;;10.90;64.20;;;;;;5052121;28;20024;-67
2020/12/19 04:22:07;;;;;;;37.13;11.80;;;;;;;;;;5052619;28;20063;-68
2020/12/19 04:24:33;;;;;;;22.27;11.20;;;;;;;;;;5052028;28;20541;-68
2020/12/19 04:27:00;;;;;;;18.25;9.50;;;;;;;;;;5052375;28;20062;-68
2020/12/19 04:29:26;;;;;;;23.52;10.00;;;;;;;;;;5051967;28;20040;-69
2020/12/19 04:31:53;;;;;;;23.27;11.52;;;10.80;63.90;;;;;;5052266;28;20032;-67
2020/12/19 04:34:20;;;;;;;22.23;10.38;;;;;;;;;;5051973;28;20029;-68
2020/12/19 04:36:46;;;;;;;23.98;11.60;;;;;;;;;;5052009;28;20033;-68
2020/12/19 04:39:12;;;;;;;23.23;10.90;;;;;;;;;;5052260;28;20044;-68
2020/12/19 04:41:38;;;;;;;25.70;11.38;;;;;;;;;;5051894;28;20032;-68
2020/12/19 04:44:05;;;;;;;21.65;11.10;;;;;;;;;;5052114;28;20472;-68
2020/12/19 04:46:32;;;;;;;27.58;10.77;;;10.90;64.00;;;;;;5051727;28;20036;-68
2020/12/19 04:48:59;;;;;;;25.58;11.23;;;10.90;63.70;;;;;;5051766;28;20040;-69
2020/12/19 04:51:27;;;;;;;23.10;10.82;;;10.90;64.10;;;;;;5051954;28;20072;-68
2020/12/19 04:53:53;;;;;;;24.08;11.55;;;;;;;;;;5052182;28;20037;-69
2020/12/19 04:56:22;;;;;;;24.48;11.02;;;11.00;63.40;;;;;;5051952;28;20036;-67
2020/12/19 04:58:53;;;;;;;29.25;11.57;;;11.10;63.70;;;;;;5051670;28;20029;-67
2020/12/19 05:01:19;;;;;;;22.55;11.05;;;;;;;;;;5050662;28;20037;-67
2020/12/19 05:03:51;;;;;;;23.92;10.93;;;11.20;63.60;;;;;;5051394;28;20041;-69
2020/12/19 05:06:27;;;;;;;24.85;10.70;;;11.10;63.10;;;;;;5050074;28;20106;-69
2020/12/19 05:08:54;;;;;;;;;;;11.20;63.60;;;;;;5051752;28;20090;-68
2020/12/19 05:11:20;;;;;;;;;;;11.50;63.70;;;;;;5051919;28;19921;-68
2020/12/19 05:13:47;;;;;;;20.30;9.82;;;;;;;;;;5051407;28;19909;-69
2020/12/19 05:16:15;;;;;;;20.02;9.95;;;11.10;63.70;;;;;;5051231;28;20082;-68
2020/12/19 05:18:42;;;;;;;19.08;10.15;;;;;;;;;;5051610;28;20025;-67
2020/12/19 05:21:09;;;;;;;20.63;11.18;;;11.10;63.40;;;;;;5051259;28;20029;-68
2020/12/19 05:23:36;;;;;;;23.60;11.07;;;;;;;;;;5051619;28;20021;-68
2020/12/19 05:26:04;;;;;;;21.42;10.55;;;10.90;63.40;;;;;;5051075;28;20028;-67
2020/12/19 05:28:30;;;;;;;19.63;10.13;;;;;;;;;;5042532;28;20096;-68
2020/12/19 05:30:58;;;;;;;27.05;10.75;;;10.80;64.10;;;;;;5051003;28;20476;-68
2020/12/19 05:33:26;;;;;;;20.15;10.05;;;;;;;;;;5050871;28;20055;-68
2020/12/19 05:35:52;;;;;;;25.52;10.68;;;;;;;;;;5050980;28;20037;-66
2020/12/19 05:38:18;;;;;;;23.88;11.02;;;;;;;;;;5051037;28;20033;-66
2020/12/19 05:40:45;;;;;;;23.50;10.82;;;;;;;;;;5050838;28;20029;-68
2020/12/19 05:43:11;;;;;;;22.50;9.90;;;;;;;;;;5050850;28;20073;-68
2020/12/19 05:45:37;;;;;;;20.10;10.70;;;;;;;;;;5049513;28;20037;-67
2020/12/19 05:48:03;;;;;;;21.00;10.60;;;;;;;;;;5050991;28;20037;-67
2020/12/19 05:50:30;;;;;;;17.85;8.63;;;;;;;;;;5050938;28;20036;-68
2020/12/19 05:53:03;;;;;;;20.88;9.73;;;10.90;63.40;;;;;;5050812;28;20483;-67
2020/12/19 05:55:33;;;;;;;22.42;10.45;;;;;;;;;;5050931;28;20021;-67
2020/12/19 05:58:00;;;;;;;20.92;9.02;;;10.90;63.20;;;;;;5045284;28;20128;-68
2020/12/19 06:00:26;;;;;;;21.83;9.32;;;;;;;;;;5050622;28;20047;-67
2020/12/19 06:02:55;;;;;;;22.88;9.98;;;11.10;62.60;;;;;;5050968;28;20061;-69
2020/12/19 06:05:27;;;;;;;20.27;10.32;;;11.10;62.60;;;;;;5050503;28;20112;-67
2020/12/19 06:07:54;;;;;;;17.58;8.43;;;11.00;62.90;;;;;;5051028;28;20033;-67
2020/12/19 06:10:20;;;;;;;;;;;11.00;63.40;;;;;;5052821;28;20051;-68
2020/12/19 06:12:46;;;;;;;19.80;9.45;;;;;;;;;;5054524;28;19996;-67
2020/12/19 06:15:22;;;;;;;21.02;9.25;;;11.00;62.80;;;;;;5054759;28;20460;-65
2020/12/19 06:17:52;;;;;;;23.05;9.35;;;11.00;62.80;;;;;;5054994;28;20105;-67
2020/12/19 06:20:18;;;;;;;22.85;9.55;;;;;;;;;;5054819;28;20029;-67
2020/12/19 06:22:45;;;;;;;17.65;9.00;;;;;;;;;;5054264;28;20112;-68
2020/12/19 06:25:11;;;;;;;17.77;9.02;;;;;;;;;;5056783;28;20040;-68
2020/12/19 06:27:39;;;;;;;17.38;8.80;;;11.00;62.60;;;;;;5054514;28;20483;-67
2020/12/19 06:30:05;;;;;;;17.80;9.07;;;11.00;62.80;;;;;;5054243;28;20086;-67
2020/12/19 06:32:32;;;;;;;22.05;9.05;;;;;;;;;;5054445;28;20021;-67
2020/12/19 06:34:59;;;;;;;;;;;10.80;63.20;;;;;;5054552;28;20546;-67
2020/12/19 06:37:26;;;;;;;16.30;8.25;;;;;;;;;;5054162;28;20003;-67
2020/12/19 06:40:20;;;;;;;16.75;8.73;;;10.90;62.70;;;;;;5053688;28;20070;-68
2020/12/19 06:42:48;;;;;;;18.63;9.18;;;10.70;63.20;;;;;;5052277;28;20127;-69
2020/12/19 06:45:27;;;;;;;19.05;9.30;;;11.00;62.80;;;;;;5053999;28;20037;-67
2020/12/19 06:47:54;;;;;;;20.67;9.27;;;10.90;62.70;;;;;;5054166;28;20025;-68
2020/12/19 06:50:20;;;;;;;;;;;10.90;63.20;;;;;;5054281;28;20029;-68
2020/12/19 06:52:55;;;;;;;21.75;9.07;;;10.50;63.30;;;;;;5054006;28;19909;-70
2020/12/19 06:55:24;;;;;;;23.08;8.98;;;10.40;64.40;;;;;;5053914;28;20047;-68
2020/12/19 06:57:58;;;;;;;19.85;10.35;;;10.50;64.30;;;;;;5054058;28;20025;-68
2020/12/19 07:00:31;;;;;;;18.73;9.15;;;10.70;63.70;;;;;;5053569;28;20468;-68
2020/12/19 07:03:01;;;;;;;24.42;9.05;;;10.60;64.10;;;;;;5053955;28;20033;-67
2020/12/19 07:05:35;;;;;;;16.33;9.07;;;10.40;65.10;;;;;;5051720;28;20037;-66
2020/12/19 07:08:21;;;;;;;19.90;8.55;;;10.00;66.20;;;;;;5053613;28;20029;-69
2020/12/19 07:10:49;;;;;;;19.58;9.15;;;10.10;66.70;;;;;;5053017;28;20045;-68
2020/12/19 07:13:15;;;;;;;19.60;9.50;;;;;;;;;;5053587;28;20100;-68
2020/12/19 07:15:41;;;;;;;20.38;8.80;;;;;;;;;;5053378;28;20120;-68
2020/12/19 07:18:22;;;;;;;15.85;7.93;;;10.20;65.80;;;;;;5053142;28;20043;-68
2020/12/19 07:21:03;;;;;;;17.00;9.23;;;10.60;65.10;;;;;;5052892;28;20032;-68
2020/12/19 07:23:29;;;;;;;16.08;9.15;;;;;;;;;;5053034;28;20021;-68
2020/12/19 07:25:56;;;;;;;18.40;9.10;;;;;;;;;;5053024;28;20045;-68
2020/12/19 07:28:22;;;;;;;20.65;8.93;;;;;;;;;;5053308;28;20033;-68
2020/12/19 07:30:48;;;;;;;20.38;9.25;;;;;;;;;;5053178;28;20037;-67
2020/12/19 07:33:15;;;;;;;18.27;8.75;;;;;;;;;;5053202;28;20021;-69
2020/12/19 07:35:41;;;;;;;15.75;7.80;;;;;;;;;;5053028;28;20039;-68
2020/12/19 07:38:07;;;;;;;21.77;9.60;;;;;;;;;;5051256;28;20052;-67
2020/12/19 07:40:34;;;;;;;22.20;9.20;;;;;;;;;;5053030;28;20027;-67
2020/12/19 07:43:04;;;;;;;19.40;8.50;;;11.60;62.40;;;;;;5052938;28;20036;-67
2020/12/19 07:45:30;;;;;;;16.80;8.15;;;;;;;;;;5051637;28;20033;-69
2020/12/19 07:47:57;;;;;;;18.63;9.38;;;;;;;;;;5052594;28;20033;-67
2020/12/19 07:50:28;;;;;;;18.27;9.23;;;11.60;62.30;;;;;;5052701;28;20033;-67
2020/12/19 07:53:00;;;;;;;19.98;8.93;;;11.70;61.80;;;;;;5052415;28;20025;-67
2020/12/19 07:55:27;;;;;;;21.83;9.23;;;;;;;;;;5052312;28;20055;-68
2020/12/19 07:57:54;;;;;;;15.68;8.13;;;11.60;61.90;;;;;;5051718;28;20078;-68
2020/12/19 08:00:21;;;;;;;15.50;8.25;;;;;;;;;;5052234;28;20067;-68
2020/12/19 08:02:48;;;;;;;25.17;8.82;;;;;;;;;;5052857;28;20075;-68
2020/12/19 08:05:14;;;;;;;17.08;8.70;;;;;;;;;;5052313;28;20082;-66
2020/12/19 08:07:41;;;;;;;20.50;8.27;;;;;;;;;;5052018;28;20445;-68
2020/12/19 08:10:07;;;;;;;18.75;8.43;;;11.50;62.70;;;;;;5050742;28;20045;-68
2020/12/19 08:12:34;;;;;;;23.83;9.10;;;;;;;;;;5052199;28;20025;-68
2020/12/19 08:15:11;;;;;;;22.42;9.95;;;11.60;63.10;;;;;;5052249;28;20029;-71
2020/12/19 08:17:59;;;;;;;17.20;9.40;;;11.70;62.50;;;;;;5052012;28;20100;-69
2020/12/19 08:20:39;;;;;;;16.80;8.50;;;11.60;62.80;;;;;;5052576;28;20731;-69
2020/12/19 08:23:07;;;;;;;17.50;8.70;;;11.70;63.30;;;;;;5051811;28;20025;-69
2020/12/19 08:25:37;;;;;;;15.80;8.45;;;11.50;63.90;;;;;;5050556;28;20053;-70
2020/12/19 08:28:03;;;;;;;15.25;8.63;;;;;;;;;;5051933;28;20033;-70
2020/12/19 08:30:30;;;;;;;20.02;9.60;;;11.60;64.20;;;;;;5052019;28;20044;-68
2020/12/19 08:33:02;;;;;;;18.40;9.20;;;11.80;63.70;;;;;;5051354;28;20028;-68
2020/12/19 08:35:36;;;;;;;18.50;8.52;;;11.60;64.10;;;;;;5052175;28;20483;-68
2020/12/19 08:38:02;;;;;;;19.25;9.45;;;;;;;;;;5052252;28;20034;-68
2020/12/19 08:40:33;;;;;;;20.55;9.48;;;11.80;64.00;;;;;;5051820;28;20028;-69
2020/12/19 08:42:59;;;;;;;19.05;8.57;;;;;;;;;;5051529;28;20048;-67
2020/12/19 08:45:30;;;;;;;19.38;8.73;;;12.10;63.50;;;;;;5051627;28;20226;-69
2020/12/19 08:47:59;;;;;;;19.92;9.10;;;12.00;63.90;;;;;;5050043;28;20044;-69
2020/12/19 08:50:27;;;;;;;14.77;8.48;;;12.00;64.00;;;;;;5051217;28;20534;-68
2020/12/19 08:53:20;;;;;;;18.30;8.82;;;12.20;63.40;;;;;;5051761;28;20112;-69
2020/12/19 08:55:47;;;;;;;16.13;8.40;;;12.40;62.60;;;;;;5049564;28;20467;-70
2020/12/19 08:58:23;;;;;;;17.52;8.60;;;12.70;62.10;;;;;;5051307;28;20049;-68
2020/12/19 09:00:49;;;;;;;18.02;8.65;;;;;;;;;;5051370;28;20037;-69
2020/12/19 09:03:16;;;;;;;17.38;8.98;;;;;;;;;;5051084;28;20036;-67
2020/12/19 09:05:42;;;;;;;18.50;8.73;;;12.60;62.30;;;;;;5051211;28;20111;-67
2020/12/19 09:08:13;;;;;;;;;;;12.60;62.70;;;;;;5051784;28;20071;-67
2020/12/19 09:10:40;;;;;;;20.42;9.15;;;12.70;62.40;;;;;;5050715;28;20019;-66
2020/12/19 09:13:21;;;;;;;18.88;9.23;;;12.80;61.80;;;;;;5050001;28;20041;-67
2020/12/19 09:15:50;;;;;;;16.67;8.48;;;12.70;61.80;;;;;;5050945;28;20064;-68
2020/12/19 09:18:24;;;;;;;15.60;8.52;;;12.60;62.50;;;;;;5051324;28;20067;-66
2020/12/19 09:20:53;;;;;;;17.90;8.65;;;12.40;63.40;;;;;;5050548;28;20488;-67
2020/12/19 09:23:19;;;;;;;19.13;8.95;;;;;;;;;;5050937;28;20032;-66
2020/12/19 09:25:46;;;;;;;16.23;7.88;;;12.60;63.10;;;;;;5050685;28;20060;-68
2020/12/19 09:28:13;;;;;;;16.70;8.57;;;12.80;62.70;;;;;;5050623;28;20064;-67
2020/12/19 09:30:38;;;;;;;;;;;13.20;63.40;;;;;;5051339;28;20087;-66
2020/12/19 09:33:05;;;;;;;16.08;8.38;;;;;;;;;;5050534;28;19913;-68
2020/12/19 09:35:31;;;;;;;18.40;8.88;;;13.00;62.00;;;;;;5050539;28;20027;-68
2020/12/19 09:37:58;;;;;;;17.42;8.98;;;;;;;;;;5050700;28;20044;-68
2020/12/19 09:40:24;;;;;;;16.92;8.60;;;;;;;;;;5050528;28;20099;-67
2020/12/19 09:42:51;;;;;;;17.73;9.55;;;;;;;;;;5050675;28;20486;-67
2020/12/19 09:45:17;;;;;;;16.98;8.00;;;;;;;;;;5047344;28;20111;-68
2020/12/19 09:47:44;;;;;;;20.15;9.52;;;;;;;;;;5049946;28;20449;-65
2020/12/19 09:50:11;;;;;;;21.38;9.73;;;13.40;61.70;;;;;;5049512;28;20063;-68
2020/12/19 09:52:38;;;;;;;16.73;8.75;;;13.50;61.40;;;;;;5046791;28;20036;-67
2020/12/19 09:55:05;;;;;;;22.85;9.13;;;13.60;61.30;;;;;;5047142;28;20113;-67
2020/12/19 09:57:32;;;;;;;18.27;9.25;;;;;;;;;;5049818;28;20386;-67
2020/12/19 09:59:58;;;;;;;16.98;9.30;;;;;;;;;;5049366;28;20033;-67
2020/12/19 10:02:25;;;;;;;15.60;8.57;;;;;;;;;;5049990;28;20032;-67
2020/12/19 10:04:51;;;;;;;22.55;8.63;;;;;;;;;;5049577;28;20107;-67
2020/12/19 10:07:17;;;;;;;19.48;9.25;;;;;;;;;;5049862;28;20087;-67
2020/12/19 10:09:44;;;;;;;18.05;9.35;;;;;;;;;;5050434;28;20168;-68
2020/12/19 10:12:10;;;;;;;17.35;8.93;;;;;;;;;;5049700;28;20422;-68
2020/12/19 10:14:36;;;;;;;18.50;8.80;;;;;;;;;;5046000;28;20057;-68
2020/12/19 10:17:03;;;;;;;16.35;8.30;;;;;;;;;;5049368;28;20421;-68
2020/12/19 10:19:29;;;;;;;17.65;8.35;;;;;;;;;;5049691;28;20040;-68
2020/12/19 10:21:56;;;;;;;17.23;8.20;;;;;;;;;;5049474;28;20593;-68
2020/12/19 10:24:23;;;;;;;17.80;7.07;;;;;;;;;;5049681;28;20557;-68
2020/12/19 10:26:50;;;;;;;15.27;7.70;;;;;;;;;;5048786;28;20036;-68
2020/12/19 10:29:16;;;;;;;18.40;8.18;;;;;;;;;;5049008;28;20025;-67
2020/12/19 10:31:42;;;;;;;18.50;8.25;;;;;;;;;;5053082;28;20360;-68
2020/12/19 10:34:09;;;;;;;;;;;15.00;57.70;;;;;;5047948;28;20032;-67
2020/12/19 10:36:35;;;;;;;21.58;8.35;;;;;;;;;;5049495;28;20366;-68
2020/12/19 10:39:01;;;;;;;14.27;7.85;;;;;;;;;;5047539;28;20029;-68
2020/12/19 10:41:28;;;;;;;19.25;8.30;;;;;;;;;;5048923;28;20029;-68
2020/12/19 10:43:54;;;;;;;18.95;7.90;;;;;;;;;;5049213;28;20095;-67
2020/12/19 10:46:24;;;;;;;16.77;7.80;;;15.10;58.30;;;;;;5049638;28;20521;-69
2020/12/19 10:48:50;;;;;;;15.00;7.57;;;;;;;;;;5050249;28;20033;-68
2020/12/19 10:51:16;;;;;;;22.15;7.50;;;;;;;;;;5051160;28;20033;-72
2020/12/19 10:53:43;;;;;;;14.98;7.57;;;15.10;58.10;;;;;;5049489;28;20037;-69
2020/12/19 10:56:19;;;;;;;16.45;7.68;;;15.30;57.80;;;;;;5050646;28;20035;-69
2020/12/19 10:58:45;;;;;;;13.55;7.45;;;;;;;;;;5046236;28;20166;-69
2020/12/19 11:01:12;;;;;;;15.15;7.25;;;;;;;;;;5052145;28;20400;-70
2020/12/19 11:03:38;;;;;;;17.77;7.32;;;;;;;;;;5053037;28;20036;-67
2020/12/19 11:06:04;;;;;;;12.82;6.97;;;;;;;;;;5035184;28;20424;-67
2020/12/19 11:08:30;;;;;;;15.18;7.78;;;;;;;;;;5053134;28;20663;-67
2020/12/19 11:10:57;;;;;;;16.58;7.20;;;;;;;;;;5052833;28;20029;-66
2020/12/19 11:13:23;;;;;;;13.98;6.53;;;;;;;;;;5051367;28;20476;-68
2020/12/19 11:15:49;;;;;;;13.63;7.30;;;;;;;;;;5052667;28;20443;-67
2020/12/19 11:18:15;;;;;;;11.55;6.78;;;;;;;;;;5052994;28;20479;-66
2020/12/19 11:20:42;;;;;;;14.13;7.20;;;;;;;;;;5053109;28;20480;-69
2020/12/19 11:23:08;;;;;;;18.77;7.30;;;;;;;;;;5052565;28;20060;-68
2020/12/19 11:25:34;;;;;;;17.70;7.55;;;;;;;;;;5052415;28;20575;-67
2020/12/19 11:28:00;;;;;;;12.30;6.72;;;;;;;;;;5052450;28;20107;-68
2020/12/19 11:30:26;;;;;;;14.02;6.70;;;;;;;;;;5052684;28;20120;-68
2020/12/19 11:32:53;;;;;;;12.98;6.63;;;;;;;;;;5051897;28;20079;-68
2020/12/19 11:35:19;;;;;;;14.77;7.13;;;;;;;;;;5052451;28;20037;-67
2020/12/19 11:37:46;;;;;;;14.15;7.07;;;;;;;;;;5052160;28;20044;-68
2020/12/19 11:40:12;;;;;;;15.20;6.82;;;;;;;;;;5051308;28;20513;-67
2020/12/19 11:42:39;;;;;;;13.55;6.55;;;;;;;;;;5051398;28;20041;-67
2020/12/19 11:45:05;;;;;;;14.85;6.97;;;;;;;;;;5051871;28;20037;-66
2020/12/19 11:47:31;;;;;;;13.48;6.18;;;16.10;55.60;;;;;;5050853;28;20517;-67
2020/12/19 11:49:57;;;;;;;14.35;6.90;;;;;;;;;;5052139;28;20502;-68
2020/12/19 11:52:24;;;;;;;14.63;6.18;;;;;;;;;;5050870;28;20047;-67
2020/12/19 11:54:50;;;;;;;16.67;6.30;;;;;;;;;;5052200;28;20071;-68
2020/12/19 11:57:16;;;;;;;13.15;5.82;;;;;;;;;;5050373;28;20052;-69
2020/12/19 11:59:42;;;;;;;11.30;6.45;;;;;;;;;;5051581;28;20786;-69
2020/12/19 12:02:08;;;;;;;13.50;6.53;;;;;;;;;;5051916;28;20029;-68
2020/12/19 12:04:35;;;;;;;12.30;6.38;;;;;;;;;;5051810;28;20125;-68
2020/12/19 12:07:01;;;;;;;9.90;5.78;;;;;;;;;;5051069;28;20036;-68
2020/12/19 12:09:27;;;;;;;12.90;6.60;;;16.30;55.20;;;;;;5051064;28;20075;-67
2020/12/19 12:11:54;;;;;;;16.20;7.03;;;;;;;;;;5051242;28;20021;-67
2020/12/19 12:14:20;;;;;;;12.52;5.80;;;;;;;;;;5051083;28;20599;-67
2020/12/19 12:16:46;;;;;;;13.00;5.75;;;;;;;;;;5052256;28;20032;-68
2020/12/19 12:19:12;;;;;;;13.68;6.30;;;;;;;;;;5051556;28;20538;-68
2020/12/19 12:21:39;;;;;;;12.18;5.78;;;16.40;55.00;;;;;;5052104;28;20036;-67
2020/12/19 12:24:06;;;;;;;;;;;16.40;55.50;;;;;;5052431;28;20435;-67
2020/12/19 12:26:32;;;;;;;10.98;5.10;;;16.40;55.20;;;;;;5051556;28;20023;-68
2020/12/19 12:29:00;;;;;;;9.18;5.13;;;;;;;;;;5051373;28;20060;-67
2020/12/19 12:31:28;;;;;;;10.43;4.40;;;16.20;55.00;;;;;;5051342;28;20483;-68
2020/12/19 12:33:55;;;;;;;7.32;4.28;;;16.00;55.90;;;;;;5051768;28;20099;-66
2020/12/19 12:36:22;;;;;;;8.77;3.60;;;16.00;55.40;;;;;;5051274;28;20036;-68
2020/12/19 12:38:48;;;;;;;5.57;3.10;;;;;;;;;;5051550;28;20570;-67
2020/12/19 12:41:15;;;;;;;11.75;3.90;;;;;;;;;;5050813;28;20039;-67
2020/12/19 12:43:41;;;;;;;4.55;2.65;;;;;;;;;;5050668;28;20459;-68
2020/12/19 12:46:12;;;;;;;9.27;3.30;;;15.70;55.90;;;;;;5044298;28;20029;-68
2020/12/19 12:48:38;;;;;;;8.70;3.80;;;;;;;;;;5051018;28;20032;-67
2020/12/19 12:51:09;;;;;;;6.82;3.30;;;15.90;54.90;;;;;;5051043;28;20037;-69
2020/12/19 12:53:35;;;;;;;5.10;2.90;;;;;;;;;;5050675;28;20029;-68
2020/12/19 12:56:02;;;;;;;7.20;3.08;;;;;;;;;;5050661;28;20365;-67
2020/12/19 12:58:28;;;;;;;7.45;2.88;;;16.00;55.10;;;;;;5049463;28;20049;-67
2020/12/19 13:00:54;;;;;;;4.67;2.73;;;16.10;54.90;;;;;;5051152;28;20135;-68
2020/12/19 13:03:20;;;;;;;6.05;3.17;;;;;;;;;;5049219;28;20082;-67
2020/12/19 13:05:46;;;;;;;8.60;3.83;;;;;;;;;;5050376;28;20024;-66
2020/12/19 13:08:13;;;;;;;3.92;2.80;;;;;;;;;;5051000;28;20509;-70
2020/12/19 13:10:42;;;;;;;6.45;3.00;;;15.40;54.70;;;;;;5050388;28;20052;-68
2020/12/19 13:13:09;;;;;;;10.25;3.10;;;15.90;54.80;;;;;;5050219;28;20037;-69
2020/12/19 13:15:35;;;;;;;5.22;2.90;;;16.20;54.90;;;;;;5050509;28;20108;-68
2020/12/19 13:18:02;;;;;;;5.85;3.25;;;16.00;55.40;;;;;;5050605;28;20386;-69
2020/12/19 13:20:29;;;;;;;4.03;2.80;;;15.90;55.70;;;;;;5050589;28;20028;-68
2020/12/19 13:22:55;;;;;;;6.93;3.35;;;16.20;55.20;;;;;;5050522;28;20028;-68
2020/12/19 13:25:21;;;;;;;6.68;2.75;;;16.00;55.30;;;;;;5050719;28;20100;-66
2020/12/19 13:27:47;;;;;;;7.05;2.88;;;;;;;;;;5050078;28;20483;-67
2020/12/19 13:30:14;;;;;;;3.85;2.70;;;;;;;;;;5050694;28;20033;-68
2020/12/19 13:32:40;;;;;;;6.15;2.90;;;;;;;;;;5048947;28;20045;-69
2020/12/19 13:35:06;;;;;;;10.00;2.83;;;;;;;;;;5050633;28;20075;-68
2020/12/19 13:37:33;;;;;;;6.68;3.58;;;15.50;58.60;;;;;;5050048;28;20040;-67
2020/12/19 13:39:59;;;;;;;;;;;15.50;59.10;;;;;;5050916;28;20037;-68
2020/12/19 13:42:26;;;;;;;5.30;2.67;;;;;;;;;;5028802;28;20274;-68
2020/12/19 13:44:52;;;;;;;4.93;2.72;;;;;;;;;;5047128;28;20044;-68
2020/12/19 13:47:18;;;;;;;4.93;2.97;;;15.70;58.50;;;;;;5050536;28;20032;-68